createdAt,value
2016-05-15T00:00:24.765Z,0
2016-05-15T00:01:24.627Z,0
2016-05-15T00:02:24.613Z,0
2016-05-15T00:03:24.758Z,0
2016-05-15T00:04:24.745Z,0
2016-05-15T00:05:24.591Z,0
2016-05-15T00:06:24.579Z,0
2016-05-15T00:07:24.737Z,0
2016-05-15T00:08:24.739Z,0
2016-05-15T00:09:24.726Z,0
2016-05-15T00:10:24.761Z,0
2016-05-15T00:11:24.592Z,0
2016-05-15T00:12:24.610Z,0
2016-05-15T00:13:24.753Z,0
2016-05-15T00:14:24.771Z,0
2016-05-15T00:15:24.587Z,0
2016-05-15T00:16:24.589Z,0
2016-05-15T00:17:24.717Z,0
2016-05-15T00:18:24.751Z,0
2016-05-15T00:19:28.128Z,0
2016-05-15T00:20:24.756Z,0
2016-05-15T00:21:24.744Z,0
2016-05-15T00:22:24.730Z,0
2016-05-15T00:23:24.562Z,0
2016-05-15T00:24:24.408Z,0
2016-05-15T00:25:24.551Z,0
2016-05-15T00:26:24.428Z,0
2016-05-15T00:27:24.713Z,0
2016-05-15T00:28:24.715Z,0
2016-05-15T00:29:24.702Z,0
2016-05-15T00:30:24.674Z,0
2016-05-15T00:31:24.692Z,0
2016-05-15T00:32:24.711Z,0
2016-05-15T00:33:24.713Z,0
2016-05-15T00:34:25.279Z,0
2016-05-15T00:35:24.687Z,0
2016-05-15T00:36:24.409Z,0
2016-05-15T00:37:24.708Z,0
2016-05-15T00:38:24.679Z,0
2016-05-15T00:39:24.682Z,0
2016-05-15T00:40:24.685Z,0
2016-05-15T00:41:24.687Z,0
2016-05-15T00:42:24.518Z,0
2016-05-15T00:43:24.678Z,0
2016-05-15T00:44:24.540Z,0
2016-05-15T00:45:24.683Z,0
2016-05-15T00:46:24.654Z,0
2016-05-15T00:47:24.689Z,0
2016-05-15T00:48:24.347Z,0
2016-05-15T00:49:26.070Z,0
2016-05-15T00:50:24.650Z,0
2016-05-15T00:51:24.746Z,0
2016-05-15T00:52:24.655Z,0
2016-05-15T00:53:24.517Z,0
2016-05-15T00:54:24.753Z,0
2016-05-15T00:55:24.647Z,0
2016-05-15T00:56:24.666Z,0
2016-05-15T00:57:24.653Z,0
2016-05-15T00:58:24.514Z,0
2016-05-15T00:59:24.658Z,0
2016-05-15T01:00:24.630Z,0
2016-05-15T01:01:24.507Z,0
2016-05-15T01:02:24.650Z,0
2016-05-15T01:03:52.028Z,0
2016-05-15T01:04:24.219Z,0
2016-05-15T01:05:24.346Z,0
2016-05-15T01:06:24.474Z,0
2016-05-15T01:07:24.477Z,0
2016-05-15T01:08:24.651Z,0
2016-05-15T01:09:24.482Z,0
2016-05-15T01:10:24.485Z,0
2016-05-15T01:11:24.644Z,0
2016-05-15T01:12:24.677Z,0
2016-05-15T01:13:24.618Z,0
2016-05-15T01:14:24.151Z,0
2016-05-15T01:15:24.498Z,0
2016-05-15T01:16:24.657Z,0
2016-05-15T01:17:24.628Z,0
2016-05-15T01:18:24.631Z,0
2016-05-15T01:19:24.728Z,0
2016-05-15T01:20:24.636Z,0
2016-05-15T01:21:24.640Z,0
2016-05-15T01:22:24.470Z,0
2016-05-15T01:23:24.614Z,0
2016-05-15T01:24:24.631Z,0
2016-05-15T01:25:24.447Z,0
2016-05-15T01:26:24.684Z,0
2016-05-15T01:27:24.608Z,0
2016-05-15T01:28:24.611Z,0
2016-05-15T01:29:24.598Z,0
2016-05-15T01:30:24.616Z,0
2016-05-15T01:31:24.697Z,0
2016-05-15T01:32:24.591Z,0
2016-05-15T01:33:24.406Z,0
2016-05-15T01:34:24.596Z,0
2016-05-15T01:35:24.599Z,0
2016-05-15T01:36:24.602Z,0
2016-05-15T01:37:24.432Z,0
2016-05-15T01:38:24.576Z,0
2016-05-15T01:39:24.579Z,0
2016-05-15T01:40:24.440Z,0
2016-05-15T01:41:24.427Z,0
2016-05-15T01:42:24.570Z,0
2016-05-15T01:43:24.573Z,0
2016-05-15T01:44:24.576Z,0
2016-05-15T01:45:24.437Z,0
2016-05-15T01:46:24.550Z,0
2016-05-15T01:47:24.615Z,0
2016-05-15T01:48:24.240Z,0
2016-05-15T01:49:25.121Z,0
2016-05-15T01:50:24.561Z,0
2016-05-15T01:51:24.389Z,0
2016-05-15T01:52:24.548Z,0
2016-05-15T01:53:24.534Z,0
2016-05-15T01:54:24.398Z,0
2016-05-15T01:55:24.525Z,0
2016-05-15T01:56:24.372Z,0
2016-05-15T01:57:24.530Z,0
2016-05-15T01:58:24.548Z,0
2016-05-15T01:59:24.536Z,0
2016-05-15T02:00:24.382Z,0
2016-05-15T02:01:24.369Z,0
2016-05-15T02:02:24.513Z,0
2016-05-15T02:03:24.375Z,0
2016-05-15T02:04:24.377Z,0
2016-05-15T02:05:24.380Z,0
2016-05-15T02:06:24.523Z,0
2016-05-15T02:07:24.354Z,0
2016-05-15T02:08:24.357Z,0
2016-05-15T02:09:24.374Z,0
2016-05-15T02:10:24.503Z,0
2016-05-15T02:11:24.365Z,0
2016-05-15T02:12:24.493Z,0
2016-05-15T02:13:24.354Z,0
2016-05-15T02:14:24.499Z,0
2016-05-15T02:15:24.313Z,0
2016-05-15T02:16:24.346Z,0
2016-05-15T02:17:24.350Z,0
2016-05-15T02:18:24.462Z,0
2016-05-15T02:19:24.339Z,0
2016-05-15T02:20:24.327Z,0
2016-05-15T02:21:24.329Z,0
2016-05-15T02:22:24.473Z,0
2016-05-15T02:23:24.303Z,0
2016-05-15T02:24:24.337Z,0
2016-05-15T02:25:24.465Z,0
2016-05-15T02:26:24.295Z,0
2016-05-15T02:27:24.455Z,0
2016-05-15T02:28:24.473Z,0
2016-05-15T02:29:24.148Z,0
2016-05-15T02:30:24.291Z,0
2016-05-15T02:31:24.309Z,0
2016-05-15T02:32:24.468Z,0
2016-05-15T02:33:24.425Z,0
2016-05-15T02:34:24.520Z,0
2016-05-15T02:35:24.460Z,0
2016-05-15T02:36:24.463Z,0
2016-05-15T02:37:24.138Z,0
2016-05-15T02:38:24.422Z,0
2016-05-15T02:39:24.424Z,0
2016-05-15T02:40:24.443Z,0
2016-05-15T02:41:24.274Z,0
2016-05-15T02:42:24.276Z,0
2016-05-15T02:43:24.419Z,0
2016-05-15T02:44:24.407Z,0
2016-05-15T02:45:24.425Z,0
2016-05-15T02:46:24.412Z,0
2016-05-15T02:47:24.102Z,0
2016-05-15T02:48:24.401Z,0
2016-05-15T02:49:24.607Z,0
2016-05-15T02:50:24.423Z,0
2016-05-15T02:51:24.425Z,0
2016-05-15T02:52:24.069Z,0
2016-05-15T02:53:24.071Z,0
2016-05-15T02:54:24.370Z,0
2016-05-15T02:55:24.264Z,0
2016-05-15T02:56:24.392Z,0
2016-05-15T02:57:24.395Z,0
2016-05-15T02:58:24.366Z,0
2016-05-15T02:59:24.385Z,0
2016-05-15T03:00:24.372Z,0
2016-05-15T03:01:24.233Z,0
2016-05-15T03:02:24.064Z,0
2016-05-15T03:03:24.052Z,0
2016-05-15T03:04:24.710Z,0
2016-05-15T03:05:24.353Z,0
2016-05-15T03:06:24.200Z,0
2016-05-15T03:07:24.203Z,0
2016-05-15T03:08:24.205Z,0
2016-05-15T03:09:24.364Z,0
2016-05-15T03:10:24.367Z,0
2016-05-15T03:11:24.213Z,0
2016-05-15T03:12:24.185Z,0
2016-05-15T03:13:24.172Z,0
2016-05-15T03:14:24.191Z,0
2016-05-15T03:15:24.349Z,0
2016-05-15T03:16:24.165Z,0
2016-05-15T03:17:24.308Z,0
2016-05-15T03:18:24.326Z,0
2016-05-15T03:19:24.204Z,0
2016-05-15T03:20:24.315Z,0
2016-05-15T03:21:24.319Z,0
2016-05-15T03:22:24.337Z,0
2016-05-15T03:23:24.339Z,0
2016-05-15T03:24:24.312Z,0
2016-05-15T03:25:24.314Z,0
2016-05-15T03:26:24.316Z,0
2016-05-15T03:27:24.148Z,0
2016-05-15T03:28:24.290Z,0
2016-05-15T03:29:24.325Z,0
2016-05-15T03:30:24.264Z,0
2016-05-15T03:31:24.142Z,0
2016-05-15T03:32:24.270Z,0
2016-05-15T03:33:24.147Z,0
2016-05-15T03:34:24.369Z,0
2016-05-15T03:35:24.294Z,0
2016-05-15T03:36:24.266Z,0
2016-05-15T03:37:24.299Z,0
2016-05-15T03:38:24.114Z,0
2016-05-15T03:39:24.274Z,0
2016-05-15T03:40:24.260Z,0
2016-05-15T03:41:24.279Z,0
2016-05-15T03:42:24.250Z,0
2016-05-15T03:43:24.097Z,0
2016-05-15T03:44:24.255Z,0
2016-05-15T03:45:24.226Z,5
2016-05-15T03:46:24.261Z,5
2016-05-15T03:47:24.263Z,5
2016-05-15T03:48:24.093Z,5
2016-05-15T03:49:24.441Z,5
2016-05-15T03:50:24.085Z,5
2016-05-15T03:51:24.212Z,5
2016-05-15T03:52:24.229Z,5
2016-05-15T03:53:24.062Z,5
2016-05-15T03:54:24.064Z,10
2016-05-15T03:55:24.050Z,10
2016-05-15T03:56:24.210Z,10
2016-05-15T03:57:24.228Z,10
2016-05-15T03:58:23.903Z,10
2016-05-15T03:59:24.030Z,10
2016-05-15T04:00:24.205Z,10
2016-05-15T04:01:24.208Z,10
2016-05-15T04:02:23.913Z,10
2016-05-15T04:03:24.197Z,10
2016-05-15T04:04:24.966Z,15
2016-05-15T04:05:24.219Z,15
2016-05-15T04:06:24.189Z,15
2016-05-15T04:07:24.036Z,15
2016-05-15T04:08:24.023Z,15
2016-05-15T04:09:24.010Z,20
2016-05-15T04:10:24.169Z,20
2016-05-15T04:11:24.156Z,20
2016-05-15T04:12:24.003Z,20
2016-05-15T04:13:24.146Z,25
2016-05-15T04:14:24.132Z,25
2016-05-15T04:15:24.183Z,25
2016-05-15T04:16:24.154Z,30
2016-05-15T04:17:24.140Z,30
2016-05-15T04:18:24.144Z,30
2016-05-15T04:19:24.537Z,35
2016-05-15T04:20:24.024Z,35
2016-05-15T04:21:24.152Z,40
2016-05-15T04:22:23.999Z,40
2016-05-15T04:23:24.142Z,40
2016-05-15T04:24:24.144Z,45
2016-05-15T04:25:24.148Z,45
2016-05-15T04:26:24.134Z,45
2016-05-15T04:27:24.137Z,45
2016-05-15T04:28:24.108Z,45
2016-05-15T04:29:24.111Z,50
2016-05-15T04:30:24.098Z,50
2016-05-15T04:31:24.131Z,55
2016-05-15T04:32:23.837Z,55
2016-05-15T04:33:24.122Z,60
2016-05-15T04:34:24.781Z,60
2016-05-15T04:35:24.080Z,65
2016-05-15T04:36:24.098Z,65
2016-05-15T04:37:24.101Z,70
2016-05-15T04:38:23.916Z,70
2016-05-15T04:39:23.919Z,70
2016-05-15T04:40:24.094Z,75
2016-05-15T04:41:24.096Z,75
2016-05-15T04:42:24.146Z,75
2016-05-15T04:43:23.946Z,80
2016-05-15T04:44:23.776Z,80
2016-05-15T04:45:24.107Z,80
2016-05-15T04:46:24.062Z,80
2016-05-15T04:47:23.910Z,80
2016-05-15T04:48:23.912Z,80
2016-05-15T04:49:24.852Z,80
2016-05-15T04:50:24.043Z,80
2016-05-15T04:51:24.060Z,85
2016-05-15T04:52:23.751Z,80
2016-05-15T04:53:23.879Z,80
2016-05-15T04:54:24.068Z,85
2016-05-15T04:55:24.040Z,85
2016-05-15T04:56:23.902Z,85
2016-05-15T04:57:24.030Z,85
2016-05-15T04:58:24.017Z,90
2016-05-15T04:59:24.035Z,90
2016-05-15T05:00:23.881Z,90
2016-05-15T05:01:23.869Z,95
2016-05-15T05:02:23.887Z,95
2016-05-15T05:03:24.014Z,105
2016-05-15T05:04:24.612Z,100
2016-05-15T05:05:24.020Z,105
2016-05-15T05:06:23.850Z,110
2016-05-15T05:07:24.011Z,115
2016-05-15T05:08:24.013Z,120
2016-05-15T05:09:23.874Z,165
2016-05-15T05:10:23.878Z,185
2016-05-15T05:11:24.005Z,140
2016-05-15T05:12:24.024Z,155
2016-05-15T05:13:23.838Z,245
2016-05-15T05:14:23.841Z,130
2016-05-15T05:15:24.032Z,145
2016-05-15T05:16:23.846Z,140
2016-05-15T05:17:23.693Z,140
2016-05-15T05:18:23.993Z,140
2016-05-15T05:19:23.855Z,160
2016-05-15T05:20:23.998Z,160
2016-05-15T05:21:23.844Z,155
2016-05-15T05:22:23.816Z,160
2016-05-15T05:23:23.990Z,155
2016-05-15T05:24:23.821Z,165
2016-05-15T05:25:23.839Z,165
2016-05-15T05:26:23.905Z,165
2016-05-15T05:27:23.814Z,170
2016-05-15T05:28:23.987Z,170
2016-05-15T05:29:23.976Z,175
2016-05-15T05:30:23.962Z,175
2016-05-15T05:31:23.824Z,180
2016-05-15T05:32:23.983Z,185
2016-05-15T05:33:23.987Z,190
2016-05-15T05:34:24.051Z,195
2016-05-15T05:35:23.788Z,200
2016-05-15T05:36:23.635Z,195
2016-05-15T05:37:23.950Z,190
2016-05-15T05:38:23.968Z,190
2016-05-15T05:39:23.971Z,190
2016-05-15T05:40:23.958Z,200
2016-05-15T05:41:23.977Z,350
2016-05-15T05:42:23.963Z,350
2016-05-15T05:43:23.638Z,205
2016-05-15T05:44:23.828Z,210
2016-05-15T05:45:23.971Z,215
2016-05-15T05:46:23.802Z,220
2016-05-15T05:47:23.977Z,220
2016-05-15T05:48:23.933Z,220
2016-05-15T05:49:24.310Z,215
2016-05-15T05:50:23.657Z,215
2016-05-15T05:51:23.957Z,210
2016-05-15T05:52:23.943Z,185
2016-05-15T05:53:23.618Z,180
2016-05-15T05:54:23.933Z,200
2016-05-15T05:55:23.795Z,175
2016-05-15T05:56:23.782Z,170
2016-05-15T05:57:23.941Z,175
2016-05-15T05:58:23.943Z,240
2016-05-15T05:59:23.775Z,185
2016-05-15T06:00:23.933Z,180
2016-05-15T06:01:23.796Z,230
2016-05-15T06:02:23.986Z,200
2016-05-15T06:03:23.786Z,180
2016-05-15T06:04:23.757Z,185
2016-05-15T06:05:23.775Z,185
2016-05-15T06:06:23.950Z,195
2016-05-15T06:07:23.937Z,230
2016-05-15T06:08:23.939Z,210
2016-05-15T06:09:23.958Z,190
2016-05-15T06:10:23.944Z,205
2016-05-15T06:11:23.948Z,195
2016-05-15T06:12:23.778Z,195
2016-05-15T06:13:23.938Z,205
2016-05-15T06:14:23.799Z,215
2016-05-15T06:15:23.755Z,200
2016-05-15T06:16:23.946Z,280
2016-05-15T06:17:23.760Z,330
2016-05-15T06:18:23.764Z,320
2016-05-15T06:19:24.297Z,310
2016-05-15T06:20:23.956Z,210
2016-05-15T06:21:23.788Z,285
2016-05-15T06:22:23.758Z,210
2016-05-15T06:23:23.917Z,190
2016-05-15T06:24:23.779Z,190
2016-05-15T06:25:23.938Z,205
2016-05-15T06:26:23.957Z,195
2016-05-15T06:27:24.006Z,225
2016-05-15T06:28:23.774Z,235
2016-05-15T06:29:23.777Z,260
2016-05-15T06:30:23.967Z,225
2016-05-15T06:31:23.782Z,345
2016-05-15T06:32:23.910Z,275
2016-05-15T06:33:23.929Z,340
2016-05-15T06:34:24.025Z,310
2016-05-15T06:35:23.465Z,350
2016-05-15T06:36:23.937Z,350
2016-05-15T06:37:23.939Z,340
2016-05-15T06:38:23.770Z,355
2016-05-15T06:39:23.788Z,335
2016-05-15T06:40:23.823Z,350
2016-05-15T06:41:23.966Z,350
2016-05-15T06:42:23.936Z,340
2016-05-15T06:43:23.956Z,340
2016-05-15T06:44:23.989Z,345
2016-05-15T06:45:23.961Z,345
2016-05-15T06:46:23.807Z,365
2016-05-15T06:47:23.967Z,350
2016-05-15T06:48:23.828Z,355
2016-05-15T06:49:24.487Z,350
2016-05-15T06:50:24.006Z,350
2016-05-15T06:51:24.008Z,200
2016-05-15T06:52:24.010Z,210
2016-05-15T06:53:24.029Z,265
2016-05-15T06:54:24.016Z,280
2016-05-15T06:55:23.847Z,255
2016-05-15T06:56:24.084Z,375
2016-05-15T06:57:24.040Z,310
2016-05-15T06:58:23.871Z,330
2016-05-15T06:59:24.014Z,380
2016-05-15T07:00:24.032Z,380
2016-05-15T07:01:23.863Z,275
2016-05-15T07:02:23.741Z,370
2016-05-15T07:03:24.040Z,340
2016-05-15T07:04:24.700Z,350
2016-05-15T07:05:23.874Z,335
2016-05-15T07:06:24.080Z,315
2016-05-15T07:07:23.738Z,220
2016-05-15T07:08:23.898Z,230
2016-05-15T07:09:24.041Z,250
2016-05-15T07:10:24.044Z,325
2016-05-15T07:11:23.905Z,280
2016-05-15T07:12:24.081Z,255
2016-05-15T07:13:23.786Z,285
2016-05-15T07:14:24.101Z,265
2016-05-15T07:15:24.089Z,285
2016-05-15T07:16:24.122Z,285
2016-05-15T07:17:24.094Z,270
2016-05-15T07:18:24.081Z,240
2016-05-15T07:19:24.099Z,245
2016-05-15T07:20:24.118Z,255
2016-05-15T07:21:24.120Z,250
2016-05-15T07:22:23.951Z,295
2016-05-15T07:23:23.985Z,235
2016-05-15T07:24:23.972Z,245
2016-05-15T07:25:24.115Z,270
2016-05-15T07:26:24.118Z,365
2016-05-15T07:27:24.137Z,360
2016-05-15T07:28:23.982Z,330
2016-05-15T07:29:24.126Z,375
2016-05-15T07:30:24.113Z,285
2016-05-15T07:31:24.148Z,270
2016-05-15T07:32:24.150Z,250
2016-05-15T07:33:24.137Z,305
2016-05-15T07:34:24.609Z,275
2016-05-15T07:35:24.126Z,330
2016-05-15T07:36:24.160Z,265
2016-05-15T07:37:23.835Z,245
2016-05-15T07:38:24.134Z,210
2016-05-15T07:39:24.142Z,200
2016-05-15T07:40:24.235Z,200
2016-05-15T07:41:24.282Z,205
2016-05-15T07:42:24.342Z,240
2016-05-15T07:43:24.341Z,245
2016-05-15T07:44:24.250Z,210
2016-05-15T07:45:24.409Z,210
2016-05-15T07:46:24.428Z,215
2016-05-15T07:47:24.446Z,315
2016-05-15T07:48:24.480Z,260
2016-05-15T07:49:25.009Z,360
2016-05-15T07:50:24.173Z,260
2016-05-15T07:51:24.510Z,360
2016-05-15T07:52:24.502Z,355
2016-05-15T07:53:38.626Z,355
2016-05-15T07:54:24.345Z,350
2016-05-15T07:55:25.318Z,355
2016-05-15T07:56:24.526Z,355
2016-05-15T07:57:24.342Z,355
2016-05-15T07:58:24.379Z,325
2016-05-15T07:59:24.351Z,355
2016-05-15T08:00:24.371Z,355
2016-05-15T08:01:24.515Z,365
2016-05-15T08:02:24.549Z,365
2016-05-15T08:03:24.569Z,375
2016-05-15T08:04:25.478Z,385
2016-05-15T08:05:24.575Z,280
2016-05-15T08:06:24.390Z,280
2016-05-15T08:07:24.550Z,415
2016-05-15T08:08:24.569Z,420
2016-05-15T08:09:24.446Z,430
2016-05-15T08:10:24.637Z,290
2016-05-15T08:11:24.639Z,280
2016-05-15T08:12:24.579Z,270
2016-05-15T08:13:24.410Z,260
2016-05-15T08:14:24.444Z,330
2016-05-15T08:15:24.447Z,240
2016-05-15T08:16:24.637Z,230
2016-05-15T08:17:24.655Z,220
2016-05-15T08:18:24.596Z,210
2016-05-15T08:19:25.239Z,195
2016-05-15T08:20:24.476Z,195
2016-05-15T08:21:24.448Z,190
2016-05-15T08:22:24.498Z,195
2016-05-15T08:23:24.625Z,200
2016-05-15T08:24:24.487Z,210
2016-05-15T08:25:24.490Z,215
2016-05-15T08:26:24.648Z,235
2016-05-15T08:27:24.479Z,255
2016-05-15T08:28:24.669Z,360
2016-05-15T08:29:24.673Z,370
2016-05-15T08:30:24.487Z,385
2016-05-15T08:31:24.630Z,385
2016-05-15T08:32:24.508Z,395
2016-05-15T08:33:24.495Z,385
2016-05-15T08:34:25.326Z,370
2016-05-15T08:35:24.485Z,350
2016-05-15T08:36:24.645Z,340
2016-05-15T08:37:24.663Z,320
2016-05-15T08:38:24.680Z,305
2016-05-15T08:39:24.340Z,195
2016-05-15T08:40:24.358Z,185
2016-05-15T08:41:24.657Z,190
2016-05-15T08:42:24.660Z,195
2016-05-15T08:43:24.663Z,205
2016-05-15T08:44:24.666Z,220
2016-05-15T08:45:24.699Z,235
2016-05-15T08:46:24.655Z,245
2016-05-15T08:47:24.674Z,255
2016-05-15T08:48:24.660Z,255
2016-05-15T08:49:24.913Z,265
2016-05-15T08:50:24.666Z,260
2016-05-15T08:51:24.685Z,270
2016-05-15T08:52:24.687Z,265
2016-05-15T08:53:24.721Z,265
2016-05-15T08:54:24.723Z,265
2016-05-15T08:55:24.726Z,265
2016-05-15T08:56:24.682Z,265
2016-05-15T08:57:24.685Z,270
2016-05-15T08:58:24.672Z,275
2016-05-15T08:59:24.550Z,280
2016-05-15T09:00:24.584Z,290
2016-05-15T09:01:24.555Z,290
2016-05-15T09:02:24.745Z,290
2016-05-15T09:03:24.545Z,290
2016-05-15T09:04:24.563Z,285
2016-05-15T09:05:24.832Z,285
2016-05-15T09:06:24.444Z,250
2016-05-15T09:07:24.539Z,230
2016-05-15T09:08:24.542Z,210
2016-05-15T09:09:24.716Z,205
2016-05-15T09:10:24.704Z,205
2016-05-15T09:11:24.739Z,210
2016-05-15T09:12:24.569Z,215
2016-05-15T09:13:24.618Z,225
2016-05-15T09:14:24.731Z,240
2016-05-15T09:15:24.733Z,245
2016-05-15T09:16:24.735Z,255
2016-05-15T09:17:24.832Z,270
2016-05-15T09:18:24.727Z,285
2016-05-15T09:19:24.869Z,290
2016-05-15T09:20:24.606Z,300
2016-05-15T09:21:24.562Z,310
2016-05-15T09:22:24.689Z,315
2016-05-15T09:23:24.537Z,320
2016-05-15T09:24:24.710Z,320
2016-05-15T09:25:24.745Z,360
2016-05-15T09:26:24.748Z,335
2016-05-15T09:27:24.562Z,320
2016-05-15T09:28:24.550Z,290
2016-05-15T09:29:24.693Z,280
2016-05-15T09:30:24.726Z,270
2016-05-15T09:31:24.573Z,265
2016-05-15T09:32:24.732Z,270
2016-05-15T09:33:24.688Z,310
2016-05-15T09:34:25.503Z,305
2016-05-15T09:35:24.506Z,320
2016-05-15T09:36:24.711Z,280
2016-05-15T09:37:24.558Z,310
2016-05-15T09:38:24.577Z,335
2016-05-15T09:39:24.736Z,320
2016-05-15T09:40:24.707Z,280
2016-05-15T09:41:24.772Z,270
2016-05-15T09:42:24.744Z,260
2016-05-15T09:43:24.746Z,285
2016-05-15T09:44:24.749Z,305
2016-05-15T09:45:24.876Z,290
2016-05-15T09:46:24.739Z,280
2016-05-15T09:47:24.741Z,280
2016-05-15T09:48:24.760Z,285
2016-05-15T09:49:25.543Z,280
2016-05-15T09:50:24.765Z,270
2016-05-15T09:51:24.737Z,265
2016-05-15T09:52:24.568Z,260
2016-05-15T09:53:24.742Z,245
2016-05-15T09:54:24.760Z,230
2016-05-15T09:55:24.590Z,225
2016-05-15T09:56:24.750Z,270
2016-05-15T09:57:24.768Z,235
2016-05-15T09:58:24.598Z,265
2016-05-15T09:59:24.587Z,295
2016-05-15T10:00:24.745Z,225
2016-05-15T10:01:24.779Z,230
2016-05-15T10:02:24.797Z,235
2016-05-15T10:03:24.784Z,245
2016-05-15T10:04:24.709Z,255
2016-05-15T10:05:24.586Z,260
2016-05-15T10:06:24.417Z,265
2016-05-15T10:07:24.733Z,265
2016-05-15T10:08:24.595Z,265
2016-05-15T10:09:24.613Z,265
2016-05-15T10:10:24.724Z,250
2016-05-15T10:11:24.602Z,245
2016-05-15T10:12:24.731Z,250
2016-05-15T10:13:24.764Z,255
2016-05-15T10:14:24.735Z,325
2016-05-15T10:15:24.739Z,320
2016-05-15T10:16:24.616Z,250
2016-05-15T10:17:24.619Z,250
2016-05-15T10:18:24.652Z,255
2016-05-15T10:19:25.641Z,250
2016-05-15T10:20:24.611Z,245
2016-05-15T10:21:24.739Z,245
2016-05-15T10:22:24.757Z,240
2016-05-15T10:23:24.775Z,240
2016-05-15T10:24:24.497Z,240
2016-05-15T10:25:24.749Z,245
2016-05-15T10:26:24.784Z,245
2016-05-15T10:27:24.739Z,245
2016-05-15T10:28:24.804Z,305
2016-05-15T10:29:24.760Z,305
2016-05-15T10:30:24.638Z,295
2016-05-15T10:31:24.922Z,280
2016-05-15T10:32:24.800Z,270
2016-05-15T10:33:24.787Z,205
2016-05-15T10:34:25.071Z,185
2016-05-15T10:35:24.839Z,175
2016-05-15T10:36:24.763Z,170
2016-05-15T10:37:24.782Z,170
2016-05-15T10:38:24.457Z,175
2016-05-15T10:39:24.647Z,185
2016-05-15T10:40:24.633Z,195
2016-05-15T10:41:24.762Z,205
2016-05-15T10:42:24.624Z,220
2016-05-15T10:43:24.736Z,230
2016-05-15T10:44:24.441Z,235
2016-05-15T10:45:24.788Z,255
2016-05-15T10:46:24.775Z,260
2016-05-15T10:47:24.653Z,265
2016-05-15T10:48:24.702Z,265
2016-05-15T10:49:24.877Z,265
2016-05-15T10:50:24.832Z,270
2016-05-15T10:51:24.649Z,265
2016-05-15T10:52:24.619Z,270
2016-05-15T10:53:24.778Z,270
2016-05-15T10:54:24.781Z,270
2016-05-15T10:55:24.751Z,265
2016-05-15T10:56:24.755Z,265
2016-05-15T10:57:24.632Z,265
2016-05-15T10:58:24.776Z,270
2016-05-15T10:59:24.590Z,275
2016-05-15T11:00:24.782Z,280
2016-05-15T11:01:24.784Z,280
2016-05-15T11:02:24.459Z,285
2016-05-15T11:03:24.789Z,280
2016-05-15T11:04:24.637Z,280
2016-05-15T11:05:24.669Z,285
2016-05-15T11:06:24.767Z,290
2016-05-15T11:07:24.769Z,295
2016-05-15T11:08:24.756Z,300
2016-05-15T11:09:24.805Z,310
2016-05-15T11:10:24.762Z,310
2016-05-15T11:11:24.842Z,310
2016-05-15T11:12:24.798Z,315
2016-05-15T11:13:24.769Z,325
2016-05-15T11:14:24.616Z,330
2016-05-15T11:15:24.477Z,335
2016-05-15T11:16:24.450Z,345
2016-05-15T11:17:24.780Z,350
2016-05-15T11:18:24.752Z,355
2016-05-15T11:19:24.676Z,360
2016-05-15T11:20:24.647Z,360
2016-05-15T11:21:24.650Z,365
2016-05-15T11:22:24.668Z,375
2016-05-15T11:23:24.765Z,380
2016-05-15T11:24:24.346Z,380
2016-05-15T11:25:24.645Z,375
2016-05-15T11:26:24.820Z,370
2016-05-15T11:27:24.635Z,365
2016-05-15T11:28:24.825Z,375
2016-05-15T11:29:24.781Z,380
2016-05-15T11:30:24.643Z,390
2016-05-15T11:31:24.646Z,400
2016-05-15T11:32:24.804Z,405
2016-05-15T11:33:24.823Z,410
2016-05-15T11:34:24.920Z,410
2016-05-15T11:35:25.720Z,420
2016-05-15T11:36:24.847Z,415
2016-05-15T11:37:25.631Z,410
2016-05-15T11:38:24.805Z,405
2016-05-15T11:39:24.823Z,400
2016-05-15T11:40:24.842Z,390
2016-05-15T11:41:24.486Z,390
2016-05-15T11:42:24.800Z,400
2016-05-15T11:43:24.850Z,400
2016-05-15T11:44:24.696Z,425
2016-05-15T11:45:24.809Z,420
2016-05-15T11:46:24.671Z,360
2016-05-15T11:47:24.689Z,345
2016-05-15T11:48:24.847Z,335
2016-05-15T11:49:24.835Z,340
2016-05-15T11:50:24.821Z,340
2016-05-15T11:51:24.888Z,345
2016-05-15T11:52:24.827Z,345
2016-05-15T11:53:24.877Z,345
2016-05-15T11:54:25.160Z,350
2016-05-15T11:55:24.835Z,355
2016-05-15T11:56:24.806Z,365
2016-05-15T11:57:24.841Z,370
2016-05-15T11:58:24.672Z,375
2016-05-15T11:59:24.862Z,380
2016-05-15T12:00:24.723Z,385
2016-05-15T12:01:24.851Z,385
2016-05-15T12:02:24.839Z,390
2016-05-15T12:03:24.701Z,395
2016-05-15T12:04:24.720Z,395
2016-05-15T12:05:24.550Z,400
2016-05-15T12:06:24.709Z,395
2016-05-15T12:07:24.977Z,395
2016-05-15T12:08:24.683Z,390
2016-05-15T12:09:24.858Z,390
2016-05-15T12:10:24.861Z,390
2016-05-15T12:11:24.863Z,390
2016-05-15T12:12:24.866Z,395
2016-05-15T12:13:24.853Z,390
2016-05-15T12:14:24.872Z,380
2016-05-15T12:15:24.733Z,380
2016-05-15T12:16:24.720Z,380
2016-05-15T12:17:24.925Z,380
2016-05-15T12:18:24.850Z,370
2016-05-15T12:19:25.462Z,365
2016-05-15T12:20:24.949Z,365
2016-05-15T12:21:24.875Z,370
2016-05-15T12:22:24.893Z,375
2016-05-15T12:23:24.880Z,385
2016-05-15T12:24:24.866Z,385
2016-05-15T12:25:24.713Z,390
2016-05-15T12:26:24.871Z,395
2016-05-15T12:27:24.891Z,390
2016-05-15T12:28:24.924Z,385
2016-05-15T12:29:24.880Z,385
2016-05-15T12:30:24.742Z,390
2016-05-15T12:31:24.885Z,385
2016-05-15T12:32:24.795Z,385
2016-05-15T12:33:24.876Z,385
2016-05-15T12:34:24.925Z,390
2016-05-15T12:35:24.928Z,390
2016-05-15T12:36:24.898Z,380
2016-05-15T12:37:24.917Z,375
2016-05-15T12:38:24.639Z,375
2016-05-15T12:39:24.767Z,370
2016-05-15T12:40:24.926Z,370
2016-05-15T12:41:24.787Z,370
2016-05-15T12:42:24.931Z,370
2016-05-15T12:43:27.808Z,375
2016-05-15T12:44:24.764Z,375
2016-05-15T12:45:25.110Z,380
2016-05-15T12:46:24.770Z,380
2016-05-15T12:47:24.928Z,380
2016-05-15T12:48:24.947Z,380
2016-05-15T12:49:25.075Z,375
2016-05-15T12:50:24.764Z,375
2016-05-15T12:51:24.939Z,370
2016-05-15T12:52:24.785Z,370
2016-05-15T12:53:24.772Z,360
2016-05-15T12:54:24.932Z,355
2016-05-15T12:55:24.935Z,355
2016-05-15T12:56:24.937Z,355
2016-05-15T12:57:24.940Z,355
2016-05-15T12:58:24.958Z,355
2016-05-15T12:59:24.946Z,355
2016-05-15T13:00:24.932Z,345
2016-05-15T13:01:24.951Z,340
2016-05-15T13:02:24.796Z,335
2016-05-15T13:03:24.956Z,335
2016-05-15T13:04:25.473Z,325
2016-05-15T13:05:24.868Z,325
2016-05-15T13:06:24.964Z,330
2016-05-15T13:07:24.982Z,325
2016-05-15T13:08:24.797Z,310
2016-05-15T13:09:24.878Z,300
2016-05-15T13:10:24.989Z,285
2016-05-15T13:11:24.836Z,270
2016-05-15T13:12:24.965Z,265
2016-05-15T13:13:24.967Z,250
2016-05-15T13:14:24.829Z,250
2016-05-15T13:15:24.800Z,250
2016-05-15T13:16:25.022Z,250
2016-05-15T13:17:24.837Z,255
2016-05-15T13:18:24.997Z,255
2016-05-15T13:19:25.686Z,255
2016-05-15T13:20:24.845Z,250
2016-05-15T13:21:24.832Z,250
2016-05-15T13:22:24.835Z,255
2016-05-15T13:23:24.869Z,260
2016-05-15T13:24:25.012Z,270
2016-05-15T13:25:25.219Z,280
2016-05-15T13:26:24.986Z,295
2016-05-15T13:27:25.004Z,305
2016-05-15T13:28:24.835Z,320
2016-05-15T13:29:25.010Z,335
2016-05-15T13:30:25.012Z,340
2016-05-15T13:31:24.907Z,340
2016-05-15T13:32:25.018Z,350
2016-05-15T13:33:25.005Z,340
2016-05-15T13:34:25.289Z,350
2016-05-15T13:35:24.854Z,320
2016-05-15T13:36:24.685Z,310
2016-05-15T13:37:24.859Z,305
2016-05-15T13:38:25.018Z,300
2016-05-15T13:39:24.896Z,300
2016-05-15T13:40:24.868Z,300
2016-05-15T13:41:25.011Z,305
2016-05-15T13:42:25.014Z,300
2016-05-15T13:43:25.016Z,300
2016-05-15T13:44:25.020Z,295
2016-05-15T13:45:25.022Z,295
2016-05-15T13:46:25.040Z,300
2016-05-15T13:47:25.028Z,305
2016-05-15T13:48:25.030Z,315
2016-05-15T13:49:25.517Z,325
2016-05-15T13:50:25.629Z,325
2016-05-15T13:51:24.741Z,325
2016-05-15T13:52:24.885Z,330
2016-05-15T13:53:24.887Z,335
2016-05-15T13:54:24.874Z,335
2016-05-15T13:55:25.033Z,335
2016-05-15T13:56:24.910Z,340
2016-05-15T13:57:25.069Z,340
2016-05-15T13:58:25.010Z,340
2016-05-15T13:59:30.200Z,345
2016-05-15T14:00:25.047Z,345
2016-05-15T14:01:25.049Z,350
2016-05-15T14:02:24.896Z,350
2016-05-15T14:03:25.054Z,355
2016-05-15T14:04:25.057Z,350